createdAt,value
2018-12-25T00:01:08.463Z,6.27
2018-12-25T00:03:38.064Z,6.13
2018-12-25T00:06:07.047Z,5.80
2018-12-25T00:08:35.957Z,6.60
2018-12-25T00:11:05.126Z,6.03
2018-12-25T00:13:33.991Z,5.83
2018-12-25T00:16:03.146Z,6.00
2018-12-25T00:18:32.320Z,6.80
2018-12-25T00:21:01.511Z,6.20
2018-12-25T00:23:32.165Z,6.40
2018-12-25T00:26:01.474Z,7.37
2018-12-25T00:28:30.583Z,6.63
2018-12-25T00:30:59.686Z,7.43
2018-12-25T00:33:28.738Z,7.37
2018-12-25T00:35:57.665Z,6.40
2018-12-25T00:38:27.198Z,6.63
2018-12-25T00:40:56.198Z,7.00
2018-12-25T00:43:25.642Z,6.07
2018-12-25T00:45:55.205Z,6.67
2018-12-25T00:48:24.509Z,6.80
2018-12-25T00:50:53.707Z,6.17
2018-12-25T00:53:22.769Z,6.07
2018-12-25T00:55:51.992Z,6.20
2018-12-25T00:58:21.906Z,5.90
2018-12-25T01:00:51.183Z,5.80
2018-12-25T01:03:21.194Z,6.43
2018-12-25T01:05:50.425Z,5.57
2018-12-25T01:08:19.821Z,6.00
2018-12-25T01:10:48.975Z,5.80
2018-12-25T01:13:17.845Z,6.17
2018-12-25T01:15:46.673Z,6.00
2018-12-25T01:18:15.950Z,5.67
2018-12-25T01:20:44.785Z,5.30
2018-12-25T01:23:14.338Z,5.87
2018-12-25T01:25:43.165Z,5.83
2018-12-25T01:28:12.197Z,6.27
2018-12-25T01:30:41.113Z,5.97
2018-12-25T01:33:09.978Z,5.60
2018-12-25T01:35:38.893Z,6.00
2018-12-25T01:38:07.826Z,6.37
2018-12-25T01:40:36.734Z,6.10
2018-12-25T01:43:05.655Z,5.87
2018-12-25T01:45:34.494Z,6.50
2018-12-25T01:48:03.450Z,5.60
2018-12-25T01:50:32.292Z,6.03
2018-12-25T01:53:01.157Z,5.57
2018-12-25T01:55:30.551Z,6.40
2018-12-25T01:57:59.636Z,5.80
2018-12-25T02:00:28.506Z,6.30
2018-12-25T02:02:57.354Z,6.07
2018-12-25T02:05:26.275Z,7.33
2018-12-25T02:07:55.187Z,7.00
2018-12-25T02:10:24.013Z,6.97
2018-12-25T02:12:53.169Z,6.70
2018-12-25T02:15:22.158Z,6.93
2018-12-25T02:17:51.197Z,6.80
2018-12-25T02:20:20.115Z,6.57
2018-12-25T02:22:48.977Z,7.40
2018-12-25T02:25:17.896Z,7.20
2018-12-25T02:27:46.764Z,7.30
2018-12-25T02:30:15.734Z,7.40
2018-12-25T02:32:44.573Z,7.77
2018-12-25T02:35:13.507Z,7.30
2018-12-25T02:37:42.580Z,7.13
2018-12-25T02:40:11.667Z,7.37
2018-12-25T02:42:41.020Z,7.83
2018-12-25T02:45:09.865Z,7.43
2018-12-25T02:47:39.230Z,7.37
2018-12-25T02:50:08.236Z,8.00
2018-12-25T02:52:37.084Z,7.43
2018-12-25T02:55:06.322Z,8.13
2018-12-25T02:57:35.314Z,8.17
2018-12-25T03:00:05.350Z,8.00
2018-12-25T03:02:34.185Z,6.87
2018-12-25T03:05:03.145Z,7.87
2018-12-25T03:07:32.040Z,7.47
2018-12-25T03:10:00.905Z,7.47
2018-12-25T03:12:29.837Z,6.83
2018-12-25T03:14:59.001Z,7.80
2018-12-25T03:17:28.823Z,6.57
2018-12-25T03:19:59.957Z,6.77
2018-12-25T03:22:28.337Z,7.40
2018-12-25T03:24:57.418Z,6.47
2018-12-25T03:27:26.260Z,7.67
2018-12-25T03:29:55.273Z,8.63
2018-12-25T03:32:24.346Z,7.67
2018-12-25T03:34:53.195Z,7.93
2018-12-25T03:37:23.412Z,7.83
2018-12-25T03:39:52.501Z,7.13
2018-12-25T03:42:21.917Z,7.70
2018-12-25T03:44:50.776Z,8.37
2018-12-25T03:47:19.598Z,8.03
2018-12-25T03:49:48.476Z,7.83
2018-12-25T03:52:17.333Z,7.03
2018-12-25T03:54:46.250Z,8.60
2018-12-25T03:57:15.099Z,7.37
2018-12-25T03:59:44.106Z,8.23
2018-12-25T04:02:12.950Z,7.57
2018-12-25T04:04:41.810Z,8.37
2018-12-25T04:07:10.721Z,7.40
2018-12-25T04:09:39.599Z,7.73
2018-12-25T04:12:08.498Z,8.37
2018-12-25T04:14:37.863Z,7.20
2018-12-25T04:17:06.890Z,7.87
2018-12-25T04:19:35.718Z,9.57
2018-12-25T04:22:04.836Z,8.17
2018-12-25T04:24:33.672Z,8.30
2018-12-25T04:27:02.537Z,8.10
2018-12-25T04:29:31.379Z,8.50
2018-12-25T04:32:00.221Z,8.57
2018-12-25T04:34:29.045Z,8.97
2018-12-25T04:36:57.889Z,8.03
2018-12-25T04:39:26.734Z,8.37
2018-12-25T04:41:55.594Z,8.20
2018-12-25T04:44:24.438Z,9.00
2018-12-25T04:46:53.295Z,8.63
2018-12-25T04:49:22.140Z,9.23
2018-12-25T04:51:51.324Z,8.77
2018-12-25T04:54:20.157Z,9.03
2018-12-25T04:56:49.203Z,9.30
2018-12-25T04:59:18.029Z,9.17
2018-12-25T05:01:46.888Z,9.43
2018-12-25T05:04:15.809Z,9.37
2018-12-25T05:06:44.736Z,8.43
2018-12-25T05:09:13.575Z,8.80
2018-12-25T05:11:42.805Z,8.87
2018-12-25T05:14:11.884Z,8.67
2018-12-25T05:16:40.728Z,9.33
2018-12-25T05:19:09.597Z,8.40
2018-12-25T05:21:38.467Z,10.37
2018-12-25T05:24:07.374Z,9.73
2018-12-25T05:26:36.717Z,9.47
2018-12-25T05:29:05.558Z,8.33
2018-12-25T05:31:34.422Z,8.47
2018-12-25T05:34:03.427Z,8.97
2018-12-25T05:36:32.599Z,8.47
2018-12-25T05:39:01.517Z,8.90
2018-12-25T05:41:30.448Z,8.70
2018-12-25T05:43:59.290Z,9.47
2018-12-25T05:46:28.233Z,9.80
2018-12-25T05:48:57.165Z,9.20
2018-12-25T05:51:26.327Z,8.03
2018-12-25T05:53:55.182Z,8.47
2018-12-25T05:56:24.058Z,8.40
2018-12-25T05:58:52.974Z,8.33
2018-12-25T06:01:21.829Z,8.43
2018-12-25T06:03:50.678Z,9.30
2018-12-25T06:06:19.757Z,8.17
2018-12-25T06:08:48.604Z,8.57
2018-12-25T06:11:17.533Z,8.37
2018-12-25T06:13:46.375Z,8.40
2018-12-25T06:16:15.250Z,8.30
2018-12-25T06:18:44.176Z,9.17
2018-12-25T06:21:13.393Z,9.20
2018-12-25T06:23:42.340Z,9.07
2018-12-25T06:26:11.195Z,8.37
2018-12-25T06:28:40.078Z,7.80
2018-12-25T06:31:08.906Z,8.43
2018-12-25T06:33:38.053Z,8.53
2018-12-25T06:36:06.961Z,8.97
2018-12-25T06:38:35.806Z,8.60
2018-12-25T06:41:04.818Z,9.53
2018-12-25T06:43:33.681Z,8.77
2018-12-25T06:46:02.595Z,8.53
2018-12-25T06:48:31.538Z,8.80
2018-12-25T06:51:03.949Z,8.80
2018-12-25T06:53:31.024Z,9.17
2018-12-25T06:55:59.861Z,9.53
2018-12-25T06:58:28.752Z,8.73
2018-12-25T07:00:57.591Z,10.07
2018-12-25T07:03:26.534Z,10.07
2018-12-25T07:05:55.761Z,10.27
2018-12-25T07:08:24.684Z,9.53
2018-12-25T07:10:54.170Z,10.20
2018-12-25T07:13:25.401Z,10.83
2018-12-25T07:15:53.952Z,10.00
2018-12-25T07:18:23.318Z,8.90
2018-12-25T07:20:52.495Z,9.23
2018-12-25T07:23:21.505Z,8.80
2018-12-25T07:25:50.424Z,8.67
2018-12-25T07:28:19.421Z,9.50
2018-12-25T07:30:48.265Z,9.43
2018-12-25T07:33:17.110Z,8.77
2018-12-25T07:35:46.039Z,8.83
2018-12-25T07:38:15.150Z,9.13
2018-12-25T07:40:44.524Z,8.67
2018-12-25T07:43:13.537Z,9.40
2018-12-25T07:45:42.630Z,9.27
2018-12-25T07:48:11.537Z,8.40
2018-12-25T07:50:40.637Z,8.33
2018-12-25T07:53:09.498Z,8.57
2018-12-25T07:55:38.440Z,8.40
2018-12-25T07:58:07.354Z,9.30
2018-12-25T08:00:36.550Z,8.40
2018-12-25T08:03:05.460Z,9.37
2018-12-25T08:05:34.480Z,8.87
2018-12-25T08:08:03.555Z,7.53
2018-12-25T08:10:32.709Z,8.43
2018-12-25T08:13:01.630Z,8.97
2018-12-25T08:15:30.631Z,9.27
2018-12-25T08:17:59.933Z,8.67
2018-12-25T08:20:28.869Z,8.37
2018-12-25T08:23:02.535Z,7.97
2018-12-25T08:25:28.765Z,9.27
2018-12-25T08:27:57.593Z,8.57
2018-12-25T08:30:26.519Z,8.80
2018-12-25T08:32:55.363Z,9.90
2018-12-25T08:35:24.518Z,9.03
2018-12-25T08:37:53.431Z,8.33
2018-12-25T08:40:22.350Z,9.03
2018-12-25T08:42:51.254Z,8.40
2018-12-25T08:45:20.194Z,10.07
2018-12-25T08:47:49.178Z,9.60
2018-12-25T08:50:18.105Z,9.67
2018-12-25T08:52:46.991Z,9.07
2018-12-25T08:55:16.054Z,8.37
2018-12-25T08:57:44.905Z,8.83
2018-12-25T09:00:14.273Z,8.77
2018-12-25T09:02:43.438Z,8.73
2018-12-25T09:05:12.373Z,9.80
2018-12-25T09:07:41.261Z,8.57
2018-12-25T09:10:10.106Z,8.13
2018-12-25T09:12:38.954Z,8.87
2018-12-25T09:15:08.181Z,8.87
2018-12-25T09:17:37.122Z,9.07
2018-12-25T09:20:06.188Z,8.80
2018-12-25T09:22:35.032Z,9.77
2018-12-25T09:25:04.050Z,9.50
2018-12-25T09:27:33.216Z,8.87
2018-12-25T09:30:02.449Z,10.37
2018-12-25T09:32:31.450Z,9.30
2018-12-25T09:35:00.368Z,8.60
2018-12-25T09:37:29.219Z,9.67
2018-12-25T09:39:58.129Z,9.67
2018-12-25T09:42:27.090Z,9.80
2018-12-25T09:44:56.030Z,9.57
2018-12-25T09:47:24.957Z,10.43
2018-12-25T09:49:53.794Z,9.43
2018-12-25T09:52:22.753Z,9.37
2018-12-25T09:54:51.827Z,10.40
2018-12-25T09:57:20.734Z,14.67
2018-12-25T09:59:49.723Z,9.97
2018-12-25T10:02:18.705Z,9.67
2018-12-25T10:04:47.879Z,9.33
2018-12-25T10:07:16.727Z,9.67
2018-12-25T10:09:45.637Z,11.17
2018-12-25T10:12:14.599Z,9.97
2018-12-25T10:14:43.538Z,8.27
2018-12-25T10:17:12.386Z,10.63
2018-12-25T10:19:41.292Z,9.90
2018-12-25T10:22:10.386Z,10.20
2018-12-25T10:24:39.294Z,10.13
2018-12-25T10:27:08.201Z,8.77
2018-12-25T10:29:37.045Z,9.00
2018-12-25T10:32:05.961Z,8.63
2018-12-25T10:34:34.796Z,9.10
2018-12-25T10:37:03.688Z,9.33
2018-12-25T10:39:32.785Z,9.27
2018-12-25T10:42:01.999Z,10.10
2018-12-25T10:44:30.917Z,8.97
2018-12-25T10:46:59.893Z,8.70
2018-12-25T10:49:28.809Z,8.67
2018-12-25T10:51:57.718Z,9.33
2018-12-25T10:54:26.690Z,8.87
2018-12-25T10:56:55.603Z,9.30
2018-12-25T10:59:24.521Z,8.73
2018-12-25T11:01:53.429Z,8.60
2018-12-25T11:04:22.258Z,7.63
2018-12-25T11:06:51.100Z,8.30
2018-12-25T11:09:19.938Z,8.67
2018-12-25T11:11:48.867Z,8.73
2018-12-25T11:14:17.953Z,7.87
2018-12-25T11:16:46.798Z,8.13
2018-12-25T11:19:16.037Z,8.40
2018-12-25T11:21:44.881Z,8.77
2018-12-25T11:24:13.717Z,9.10
2018-12-25T11:26:42.564Z,9.00
2018-12-25T11:29:11.398Z,8.43
2018-12-25T11:31:40.490Z,9.40
2018-12-25T11:34:09.407Z,8.33
2018-12-25T11:36:38.242Z,8.53
2018-12-25T11:39:07.733Z,8.07
2018-12-25T11:41:36.598Z,8.67
2018-12-25T11:44:05.507Z,8.67
2018-12-25T11:46:34.377Z,8.80
2018-12-25T11:49:03.293Z,14.17
2018-12-25T11:51:32.121Z,7.73
2018-12-25T11:54:00.966Z,8.50
2018-12-25T11:56:29.818Z,8.77
2018-12-25T11:58:58.684Z,7.70
2018-12-25T12:01:27.628Z,8.03
2018-12-25T12:03:56.473Z,8.03
2018-12-25T12:06:25.381Z,8.57
2018-12-25T12:08:54.301Z,7.93
2018-12-25T12:11:23.470Z,7.63
2018-12-25T12:13:52.388Z,6.80
2018-12-25T12:16:21.241Z,7.93
2018-12-25T12:18:50.099Z,7.67
2018-12-25T12:21:19.107Z,7.77
2018-12-25T12:23:47.946Z,7.93
2018-12-25T12:26:16.809Z,8.10
2018-12-25T12:28:45.882Z,7.63
2018-12-25T12:31:14.882Z,7.70
2018-12-25T12:33:43.978Z,7.67
2018-12-25T12:36:12.901Z,8.17
2018-12-25T12:38:41.990Z,7.90
2018-12-25T12:41:10.879Z,8.87
2018-12-25T12:43:39.805Z,7.83
2018-12-25T12:46:08.893Z,8.30
2018-12-25T12:48:38.220Z,7.07
2018-12-25T12:51:07.134Z,5.93
2018-12-25T12:53:36.053Z,6.93
2018-12-25T12:56:04.885Z,7.43
2018-12-25T12:58:33.973Z,7.17
2018-12-25T13:01:02.966Z,7.93
2018-12-25T13:03:32.405Z,7.67
2018-12-25T13:06:01.545Z,7.53
2018-12-25T13:08:30.410Z,8.13
2018-12-25T13:10:59.270Z,7.63
2018-12-25T13:13:28.648Z,7.47
2018-12-25T13:15:57.490Z,7.47
2018-12-25T13:18:26.341Z,8.30
2018-12-25T13:20:55.385Z,7.73
2018-12-25T13:23:24.224Z,7.20
2018-12-25T13:25:53.073Z,7.27
2018-12-25T13:28:22.197Z,6.77
2018-12-25T13:30:51.417Z,9.93
2018-12-25T13:33:20.382Z,7.93
2018-12-25T13:35:49.714Z,6.83
2018-12-25T13:38:18.630Z,6.90
2018-12-25T13:40:47.564Z,6.97
2018-12-25T13:43:16.410Z,6.57
2018-12-25T13:45:45.742Z,7.30
2018-12-25T13:48:14.631Z,7.17
2018-12-25T13:50:43.479Z,6.77
2018-12-25T13:53:12.296Z,7.83
2018-12-25T13:55:41.417Z,7.27
2018-12-25T13:58:10.484Z,7.23
2018-12-25T14:00:39.720Z,7.23
2018-12-25T14:03:08.558Z,6.73
2018-12-25T14:05:37.456Z,6.60
2018-12-25T14:08:06.627Z,6.30
2018-12-25T14:10:35.478Z,5.60
2018-12-25T14:13:04.381Z,6.10
2018-12-25T14:15:33.281Z,6.73
2018-12-25T14:18:02.130Z,6.87
2018-12-25T14:20:30.968Z,6.47
2018-12-25T14:22:59.817Z,6.57
2018-12-25T14:25:28.662Z,5.93
2018-12-25T14:27:57.752Z,6.80
2018-12-25T14:30:26.593Z,6.27
2018-12-25T14:32:55.685Z,6.50
2018-12-25T14:35:24.524Z,6.50
2018-12-25T14:37:53.372Z,5.90
2018-12-25T14:40:22.941Z,6.53
2018-12-25T14:42:51.801Z,7.20
2018-12-25T14:45:20.689Z,5.73
2018-12-25T14:47:49.544Z,6.40
2018-12-25T14:50:18.458Z,6.57
2018-12-25T14:52:47.312Z,6.40
2018-12-25T14:55:16.460Z,6.10
2018-12-25T14:57:45.682Z,6.70
2018-12-25T15:00:14.826Z,6.40
2018-12-25T15:02:43.734Z,6.30
2018-12-25T15:05:12.734Z,6.77
2018-12-25T15:07:43.383Z,6.53
2018-12-25T15:10:12.438Z,5.97
2018-12-25T15:12:41.794Z,6.30
2018-12-25T15:15:11.243Z,6.10
2018-12-25T15:17:40.177Z,6.83
2018-12-25T15:20:09.343Z,5.80
2018-12-25T15:22:38.157Z,6.50
2018-12-25T15:25:07.629Z,6.17
2018-12-25T15:27:36.461Z,5.90
2018-12-25T15:30:06.613Z,5.90
2018-12-25T15:32:35.736Z,5.83
2018-12-25T15:35:08.069Z,6.43
2018-12-25T15:37:36.925Z,6.43
2018-12-25T15:40:07.049Z,5.87
2018-12-25T15:42:36.128Z,6.33
2018-12-25T15:45:05.654Z,6.87
2018-12-25T15:47:34.502Z,6.63
2018-12-25T15:50:03.434Z,7.00
2018-12-25T15:52:32.278Z,6.50
2018-12-25T15:55:01.113Z,6.50
2018-12-25T15:57:30.028Z,6.83
2018-12-25T15:59:59.118Z,6.83
2018-12-25T16:02:28.033Z,7.30
2018-12-25T16:04:56.941Z,6.07
2018-12-25T16:07:25.789Z,6.97
2018-12-25T16:09:54.643Z,6.67
2018-12-25T16:12:23.727Z,6.83
2018-12-25T16:14:52.753Z,7.30
2018-12-25T16:17:26.874Z,6.33
2018-12-25T16:19:55.974Z,6.30
2018-12-25T16:22:24.833Z,7.50
2018-12-25T16:24:54.226Z,6.00
2018-12-25T16:27:26.817Z,6.63
2018-12-25T16:29:57.561Z,7.00
2018-12-25T16:32:26.799Z,7.60
2018-12-25T16:34:56.206Z,7.10
2018-12-25T16:37:25.725Z,7.07
2018-12-25T16:39:55.327Z,7.33
2018-12-25T16:42:25.092Z,6.60
2018-12-25T16:44:54.661Z,5.80
2018-12-25T16:47:24.049Z,6.53
2018-12-25T16:49:53.278Z,6.30
2018-12-25T16:52:22.580Z,5.83
2018-12-25T16:54:51.422Z,5.90
2018-12-25T16:57:20.261Z,6.53
2018-12-25T16:59:49.574Z,6.80
2018-12-25T17:02:18.797Z,6.87
2018-12-25T17:04:47.987Z,8.03
2018-12-25T17:07:16.842Z,7.17
2018-12-25T17:09:45.864Z,7.80
2018-12-25T17:12:15.558Z,7.03
2018-12-25T17:14:44.681Z,7.67
2018-12-25T17:17:14.085Z,7.63
2018-12-25T17:19:43.385Z,7.87
2018-12-25T17:22:12.643Z,7.47
2018-12-25T17:24:41.586Z,7.60
2018-12-25T17:27:10.425Z,7.97
2018-12-25T17:29:39.543Z,7.13
2018-12-25T17:32:09.273Z,7.30
2018-12-25T17:34:38.120Z,7.07
2018-12-25T17:37:08.009Z,7.57
2018-12-25T17:47:10.285Z,6.97
2018-12-25T17:49:39.137Z,6.90
2018-12-25T17:52:08.002Z,6.07
2018-12-25T17:54:37.151Z,7.00
2018-12-25T17:57:06.073Z,7.00
2018-12-25T17:59:35.013Z,6.87
2018-12-25T18:02:03.990Z,7.27
2018-12-25T18:04:32.923Z,7.07
2018-12-25T18:07:02.157Z,7.77
2018-12-25T18:09:31.007Z,8.30
2018-12-25T18:11:59.851Z,7.67
2018-12-25T18:14:28.844Z,8.20
2018-12-25T18:16:57.693Z,8.57
2018-12-25T18:19:26.877Z,7.97
2018-12-25T18:21:55.701Z,7.47
2018-12-25T18:24:24.538Z,7.60
2018-12-25T18:26:53.363Z,7.47
2018-12-25T18:29:22.197Z,8.50
2018-12-25T18:31:51.333Z,8.63
2018-12-25T18:34:20.234Z,8.60
2018-12-25T18:36:49.056Z,8.73
2018-12-25T18:39:17.898Z,8.50
2018-12-25T18:41:47.953Z,9.30
2018-12-25T18:44:17.522Z,9.33
2018-12-25T18:46:46.349Z,8.60
2018-12-25T18:49:15.659Z,7.73
2018-12-25T18:51:44.577Z,7.80
2018-12-25T18:54:13.414Z,8.27
2018-12-25T18:56:42.780Z,6.73
2018-12-25T18:59:11.837Z,9.03
2018-12-25T19:01:40.913Z,8.23
2018-12-25T19:04:10.161Z,7.90
2018-12-25T19:06:39.233Z,9.20
2018-12-25T19:09:08.701Z,9.33
2018-12-25T19:11:37.877Z,8.13
2018-12-25T19:14:06.774Z,9.37
2018-12-25T19:16:35.829Z,9.70
2018-12-25T19:19:04.822Z,10.80
2018-12-25T19:21:33.874Z,9.80
2018-12-25T19:24:02.836Z,9.63
2018-12-25T19:26:31.740Z,9.13
2018-12-25T19:29:00.919Z,10.17
2018-12-25T19:31:29.809Z,9.47
2018-12-25T19:33:58.639Z,9.40
2018-12-25T19:36:27.553Z,8.90
2018-12-25T19:38:56.378Z,9.23
2018-12-25T19:41:25.302Z,9.43
2018-12-25T19:43:54.269Z,10.20
2018-12-25T19:46:23.725Z,9.97
2018-12-25T19:48:52.873Z,10.67
2018-12-25T19:51:22.373Z,10.03
2018-12-25T19:53:51.339Z,9.73
2018-12-25T19:56:20.312Z,10.77
2018-12-25T19:58:49.546Z,10.47
2018-12-25T20:01:18.521Z,10.10
2018-12-25T20:04:25.185Z,10.00
2018-12-25T20:07:37.094Z,10.03
2018-12-25T20:10:36.470Z,10.10
2018-12-25T20:13:58.769Z,10.27
2018-12-25T20:17:05.387Z,9.33
2018-12-25T20:20:03.901Z,10.40
2018-12-25T20:23:10.237Z,10.47
2018-12-25T20:26:07.581Z,10.57
2018-12-25T20:29:21.061Z,10.73
2018-12-25T20:32:20.429Z,9.03
2018-12-25T20:35:12.750Z,11.10
2018-12-25T20:38:31.186Z,11.23
2018-12-25T20:41:37.325Z,12.13
2018-12-25T20:44:49.717Z,12.30
2018-12-25T20:47:59.813Z,11.53
2018-12-25T20:51:11.953Z,12.20
2018-12-25T20:54:22.058Z,12.47
2018-12-25T20:57:27.992Z,12.27
2018-12-25T21:00:33.363Z,12.67
2018-12-25T21:03:39.633Z,13.07
2018-12-25T21:06:42.369Z,13.27
2018-12-25T21:09:51.373Z,12.43
2018-12-25T21:12:59.168Z,12.47
2018-12-25T21:16:05.481Z,13.70
2018-12-25T21:19:10.721Z,13.20
2018-12-25T21:22:25.593Z,13.17
2018-12-25T21:25:30.602Z,13.40
2018-12-25T21:27:58.073Z,13.87
2018-12-25T21:30:27.369Z,14.27
2018-12-25T21:32:56.353Z,13.97
2018-12-25T21:35:26.016Z,13.77
2018-12-25T21:37:57.507Z,13.90
2018-12-25T21:40:27.530Z,14.33
2018-12-25T21:42:57.748Z,13.53
2018-12-25T21:45:27.201Z,13.07
2018-12-25T21:47:56.249Z,13.40
2018-12-25T21:50:25.488Z,14.37
2018-12-25T21:52:54.839Z,14.30
2018-12-25T21:55:24.777Z,14.47
2018-12-25T21:57:54.725Z,14.17
2018-12-25T22:00:26.340Z,14.23
2018-12-25T22:02:55.208Z,14.90
2018-12-25T22:05:25.013Z,14.10
2018-12-25T22:07:54.077Z,14.97
2018-12-25T22:10:23.066Z,14.53
2018-12-25T22:12:51.928Z,15.30
2018-12-25T22:15:20.912Z,14.60
2018-12-25T22:17:49.859Z,15.73
2018-12-25T22:20:26.469Z,15.20
2018-12-25T22:22:55.676Z,15.93
2018-12-25T22:25:27.199Z,14.43
2018-12-25T22:27:55.912Z,15.93
2018-12-25T22:30:25.229Z,16.57
2018-12-25T22:32:54.298Z,14.30
2018-12-25T22:35:23.146Z,16.50
2018-12-25T22:37:52.308Z,15.37
2018-12-25T22:40:21.508Z,17.43
2018-12-25T22:42:50.352Z,14.87
2018-12-25T22:45:19.279Z,16.97
2018-12-25T22:47:48.220Z,15.67
2018-12-25T22:50:17.207Z,16.57
2018-12-25T22:52:46.298Z,16.13
2018-12-25T22:55:15.369Z,15.43
2018-12-25T22:57:46.379Z,17.20
2018-12-25T23:00:16.222Z,16.97
2018-12-25T23:02:45.328Z,16.40
2018-12-25T23:05:14.953Z,15.37
2018-12-25T23:07:43.887Z,16.20
2018-12-25T23:10:12.806Z,14.97
2018-12-25T23:12:45.014Z,15.07
2018-12-25T23:15:15.029Z,17.17
2018-12-25T23:17:44.715Z,16.53
2018-12-25T23:20:14.954Z,14.73
2018-12-25T23:22:44.333Z,15.57
2018-12-25T23:25:13.862Z,15.47
2018-12-25T23:27:43.272Z,15.17
2018-12-25T23:30:12.591Z,15.53
2018-12-25T23:32:41.857Z,15.87
2018-12-25T23:35:11.810Z,16.30
2018-12-25T23:37:41.141Z,16.23
2018-12-25T23:40:10.398Z,16.37
2018-12-25T23:42:39.617Z,16.33
2018-12-25T23:45:08.535Z,16.93
2018-12-25T23:47:38.778Z,17.07
2018-12-25T23:50:11.134Z,16.73
2018-12-25T23:52:40.406Z,15.63
2018-12-25T23:55:10.013Z,16.70
2018-12-25T23:57:39.216Z,16.37
